The Cure — ZJL8658 — position and weather

sailwx.info

Track history (hours):
 
Tides and Currents Weather Stations Pressure Air Temp Water Temp Dewpoint Dewpoint Depression Visibility Wind Speed Wind Dir Waves Ship Positions

The Cure

Last reported at 2017-Dec-02 16:24 UTC. Time now 2017-Dec-12 17:46 UTC.
Position N 17°01' W 061°46'.
Warning: this ship's position is 10 days out of date.

Length 19 m.

MMSI: 378111927.

Date/timePositionNaut miles runAvg speedWind from/ knotsBaromVisibWave heightAir tempDewpointWater temp
2017-Dec-02 16:24N 17°01' W 061°46'0 0.4
2017-Dec-02 16:00N 17°01' W 061°46'3 6.6
2017-Dec-02 15:31N 16°60' W 061°50'4 7.6
2017-Dec-02 15:01N 16°60' W 061°54'5 7.7
2017-Dec-02 14:20N 17°03' W 061°58'2 7.5
2017-Dec-02 14:01N 17°05' W 061°60'4 7.3
2017-Dec-02 13:31N 17°07' W 062°03'4 7.2
2017-Dec-02 13:00N 17°09' W 062°06'4 7.3
2017-Dec-02 12:30N 17°11' W 062°09'4 7.4
2017-Dec-02 12:01N 17°13' W 062°12'4 7.0
2017-Dec-02 11:31N 17°15' W 062°15'4 7.0
2017-Dec-02 11:00N 17°17' W 062°18'12 6.3
2017-Dec-02 09:05N 17°23' W 062°30'134 7.3
2017-Dec-01 14:34N 18°25' W 064°35'0 7.4
2017-Dec-01 14:30N 18°25' W 064°35'2 0.1
2017-Nov-29 20:37N 18°23' W 064°37'1 6.5
2017-Nov-29 20:28N 18°24' W 064°38'0 0.6
2017-Nov-29 19:52N 18°24' W 064°38'2 0.2
2017-Nov-29 11:49N 18°24' W 064°36'2 0.0
2017-Nov-27 17:09N 18°22' W 064°36'1 7.7
2017-Nov-27 17:00N 18°24' W 064°36'  
2017-Nov-24 16:29N 18°23' W 064°37'2 3.1
2017-Nov-24 15:56N 18°24' W 064°38'0 0.0
2017-Nov-24 15:26N 18°24' W 064°38'0 0.0
2017-Nov-24 14:56N 18°24' W 064°38'0 0.0
2017-Nov-24 14:26N 18°24' W 064°38'0 0.0
2017-Nov-23 19:26N 18°24' W 064°38'  
Track history (hours):
 
Tides and Currents Weather Stations Pressure Air Temp Water Temp Dewpoint Dewpoint Depression Visibility Wind Speed Wind Dir Waves Ship Positions

The Cure

Last reported at 2017-Dec-02 16:24 UTC. Time now 2017-Dec-12 17:46 UTC.
Position N 17°01' W 061°46'.
Warning: this ship's position is 10 days out of date.

Length 19 m.

MMSI: 378111927.

Date/timePositionNaut miles runAvg speedWind from/ knotsBaromVisibWave heightAir tempDewpointWater temp
2017-Dec-02 16:24N 17°01' W 061°46'0 0.4
2017-Dec-02 16:00N 17°01' W 061°46'3 6.6
2017-Dec-02 15:31N 16°60' W 061°50'4 7.6
2017-Dec-02 15:01N 16°60' W 061°54'5 7.7
2017-Dec-02 14:20N 17°03' W 061°58'2 7.5
2017-Dec-02 14:01N 17°05' W 061°60'4 7.3
2017-Dec-02 13:31N 17°07' W 062°03'4 7.2
2017-Dec-02 13:00N 17°09' W 062°06'4 7.3
2017-Dec-02 12:30N 17°11' W 062°09'4 7.4
2017-Dec-02 12:01N 17°13' W 062°12'4 7.0
2017-Dec-02 11:31N 17°15' W 062°15'4 7.0
2017-Dec-02 11:00N 17°17' W 062°18'12 6.3
2017-Dec-02 09:05N 17°23' W 062°30'134 7.3
2017-Dec-01 14:34N 18°25' W 064°35'0 7.4
2017-Dec-01 14:30N 18°25' W 064°35'2 0.1
2017-Nov-29 20:37N 18°23' W 064°37'1 6.5
2017-Nov-29 20:28N 18°24' W 064°38'0 0.6
2017-Nov-29 19:52N 18°24' W 064°38'2 0.2
2017-Nov-29 11:49N 18°24' W 064°36'2 0.0
2017-Nov-27 17:09N 18°22' W 064°36'1 7.7
2017-Nov-27 17:00N 18°24' W 064°36'  
2017-Nov-24 16:29N 18°23' W 064°37'2 3.1
2017-Nov-24 15:56N 18°24' W 064°38'0 0.0
2017-Nov-24 15:26N 18°24' W 064°38'0 0.0
2017-Nov-24 14:56N 18°24' W 064°38'0 0.0
2017-Nov-24 14:26N 18°24' W 064°38'0 0.0
2017-Nov-23 19:26N 18°24' W 064°38'  

Dump ship's entire track history